sensor_id;sensor_type;location;lat;lon;timestamp;pressure;altitude;pressure_sealevel;temperature;humidity
23339;BME280;11841;49.368;20.962;2024-02-26T00:00:26;94941.94;;;9.17;87.77
23339;BME280;11841;49.368;20.962;2024-02-26T00:03:11;94943.53;;;9.18;87.53
23339;BME280;11841;49.368;20.962;2024-02-26T00:05:57;94936.66;;;9.17;87.74
23339;BME280;11841;49.368;20.962;2024-02-26T00:08:43;94945.16;;;9.19;87.73
23339;BME280;11841;49.368;20.962;2024-02-26T00:11:28;94943.53;;;9.18;87.72
23339;BME280;11841;49.368;20.962;2024-02-26T00:14:13;94947.22;;;9.17;88.22
23339;BME280;11841;49.368;20.962;2024-02-26T00:17:00;94937.09;;;9.14;88.35
23339;BME280;11841;49.368;20.962;2024-02-26T00:19:45;94937.88;;;9.15;88.58
23339;BME280;11841;49.368;20.962;2024-02-26T00:22:31;94933.41;;;9.15;88.76
23339;BME280;11841;49.368;20.962;2024-02-26T00:25:16;94930.19;;;9.13;89.05
23339;BME280;11841;49.368;20.962;2024-02-26T00:28:01;94930.28;;;9.07;89.36
23339;BME280;11841;49.368;20.962;2024-02-26T00:30:47;94916.13;;;9.01;90.11
23339;BME280;11841;49.368;20.962;2024-02-26T00:33:33;94919.00;;;9.00;90.25
23339;BME280;11841;49.368;20.962;2024-02-26T00:36:18;94917.75;;;9.02;90.08
23339;BME280;11841;49.368;20.962;2024-02-26T00:39:04;94910.41;;;9.04;89.75
23339;BME280;11841;49.368;20.962;2024-02-26T00:41:49;94918.91;;;9.06;89.31
23339;BME280;11841;49.368;20.962;2024-02-26T00:44:37;94903.63;;;9.08;89.13
23339;BME280;11841;49.368;20.962;2024-02-26T00:47:22;94900.97;;;9.08;89.16
23339;BME280;11841;49.368;20.962;2024-02-26T00:50:08;94896.50;;;9.09;89.17
23339;BME280;11841;49.368;20.962;2024-02-26T00:52:53;94902.16;;;9.12;88.83
23339;BME280;11841;49.368;20.962;2024-02-26T00:55:39;94910.31;;;9.11;89.20
23339;BME280;11841;49.368;20.962;2024-02-26T00:58:25;94910.53;;;9.09;89.61
23339;BME280;11841;49.368;20.962;2024-02-26T01:01:11;94906.50;;;9.07;89.47
23339;BME280;11841;49.368;20.962;2024-02-26T01:03:56;94896.50;;;9.09;89.47
23339;BME280;11841;49.368;20.962;2024-02-26T01:06:41;94906.25;;;9.08;89.89
23339;BME280;11841;49.368;20.962;2024-02-26T01:09:27;94895.34;;;9.05;89.90
23339;BME280;11841;49.368;20.962;2024-02-26T01:12:13;94891.44;;;9.07;89.87
23339;BME280;11841;49.368;20.962;2024-02-26T01:14:58;94885.09;;;9.08;89.98
23339;BME280;11841;49.368;20.962;2024-02-26T01:17:44;94885.09;;;9.08;90.16
23339;BME280;11841;49.368;20.962;2024-02-26T01:20:29;94884.09;;;9.09;90.32
23339;BME280;11841;49.368;20.962;2024-02-26T01:23:15;94877.75;;;9.10;89.96
23339;BME280;11841;49.368;20.962;2024-02-26T01:26:00;94868.78;;;9.11;90.19
23339;BME280;11841;49.368;20.962;2024-02-26T01:28:47;94868.34;;;9.14;89.80
23339;BME280;11841;49.368;20.962;2024-02-26T01:31:33;94863.06;;;9.14;89.78
23339;BME280;11841;49.368;20.962;2024-02-26T01:34:18;94851.22;;;9.17;89.73
23339;BME280;11841;49.368;20.962;2024-02-26T01:37:04;94858.91;;;9.18;89.74
23339;BME280;11841;49.368;20.962;2024-02-26T01:39:50;94854.09;;;9.15;90.64
23339;BME280;11841;49.368;20.962;2024-02-26T01:42:39;94855.00;;;9.09;91.16
23339;BME280;11841;49.368;20.962;2024-02-26T01:45:24;94854.56;;;9.12;91.16
23339;BME280;11841;49.368;20.962;2024-02-26T01:48:10;94847.06;;;9.09;91.49
23339;BME280;11841;49.368;20.962;2024-02-26T01:50:56;94851.06;;;9.00;92.05
23339;BME280;11841;49.368;20.962;2024-02-26T01:53:42;94855.25;;;9.08;91.73
23339;BME280;11841;49.368;20.962;2024-02-26T01:56:29;94869.72;;;9.05;92.13
23339;BME280;11841;49.368;20.962;2024-02-26T01:59:16;94863.72;;;8.98;92.82
23339;BME280;11841;49.368;20.962;2024-02-26T02:02:05;94862.25;;;9.02;92.83
23339;BME280;11841;49.368;20.962;2024-02-26T02:04:52;94859.72;;;9.07;92.30
23339;BME280;11841;49.368;20.962;2024-02-26T02:07:37;94856.38;;;9.12;92.01
23339;BME280;11841;49.368;20.962;2024-02-26T02:10:24;94859.13;;;9.17;91.32
23339;BME280;11841;49.368;20.962;2024-02-26T02:13:11;94857.91;;;9.19;91.30
23339;BME280;11841;49.368;20.962;2024-02-26T02:15:56;94862.94;;;9.21;90.74
23339;BME280;11841;49.368;20.962;2024-02-26T02:18:42;94869.84;;;9.22;90.91
23339;BME280;11841;49.368;20.962;2024-02-26T02:21:27;94859.25;;;9.22;90.61
23339;BME280;11841;49.368;20.962;2024-02-26T02:24:13;94868.00;;;9.22;90.77
23339;BME280;11841;49.368;20.962;2024-02-26T02:26:58;94871.13;;;9.19;91.26
23339;BME280;11841;49.368;20.962;2024-02-26T02:29:44;94877.41;;;9.18;90.89
23339;BME280;11841;49.368;20.962;2024-02-26T02:32:30;94884.09;;;9.21;90.98
23339;BME280;11841;49.368;20.962;2024-02-26T02:35:15;94881.69;;;9.19;90.63
23339;BME280;11841;49.368;20.962;2024-02-26T02:38:01;94880.53;;;9.15;91.22
23339;BME280;11841;49.368;20.962;2024-02-26T02:40:46;94892.38;;;9.13;91.51
23339;BME280;11841;49.368;20.962;2024-02-26T02:43:32;94893.16;;;9.13;91.65
23339;BME280;11841;49.368;20.962;2024-02-26T02:46:17;94884.44;;;9.13;91.69
23339;BME280;11841;49.368;20.962;2024-02-26T02:49:03;94874.53;;;9.08;91.84
23339;BME280;11841;49.368;20.962;2024-02-26T02:51:49;94878.34;;;9.12;91.57
23339;BME280;11841;49.368;20.962;2024-02-26T02:54:34;94876.16;;;9.09;92.11
23339;BME280;11841;49.368;20.962;2024-02-26T02:57:21;94876.16;;;9.09;92.33
23339;BME280;11841;49.368;20.962;2024-02-26T03:00:08;94860.84;;;9.00;93.35
23339;BME280;11841;49.368;20.962;2024-02-26T03:02:53;94870.94;;;9.03;93.04
23339;BME280;11841;49.368;20.962;2024-02-26T03:05:38;94863.84;;;9.03;93.18
23339;BME280;11841;49.368;20.962;2024-02-26T03:08:24;94867.53;;;9.02;93.11
23339;BME280;11841;49.368;20.962;2024-02-26T03:11:14;94876.25;;;9.03;93.27
23339;BME280;11841;49.368;20.962;2024-02-26T03:14:00;94880.75;;;9.02;93.45
23339;BME280;11841;49.368;20.962;2024-02-26T03:16:45;94883.50;;;9.07;93.01
23339;BME280;11841;49.368;20.962;2024-02-26T03:19:31;94881.22;;;9.11;92.38
23339;BME280;11841;49.368;20.962;2024-02-26T03:22:16;94882.59;;;9.13;92.30
23339;BME280;11841;49.368;20.962;2024-02-26T03:25:02;94885.81;;;9.15;92.20
23339;BME280;11841;49.368;20.962;2024-02-26T03:27:47;94880.88;;;9.07;92.54
23339;BME280;11841;49.368;20.962;2024-02-26T03:30:33;94882.22;;;9.10;92.26
23339;BME280;11841;49.368;20.962;2024-02-26T03:33:18;94882.59;;;9.13;92.16
23339;BME280;11841;49.368;20.962;2024-02-26T03:36:04;94889.50;;;9.14;91.85
23339;BME280;11841;49.368;20.962;2024-02-26T03:38:50;94876.06;;;9.16;91.55
23339;BME280;11841;49.368;20.962;2024-02-26T03:41:35;94879.72;;;9.15;91.38
23339;BME280;11841;49.368;20.962;2024-02-26T03:44:20;94880.19;;;9.12;91.75
23339;BME280;11841;49.368;20.962;2024-02-26T03:47:06;94881.44;;;9.09;91.14
23339;BME280;11841;49.368;20.962;2024-02-26T03:49:51;94885.09;;;9.08;91.13
23339;BME280;11841;49.368;20.962;2024-02-26T03:52:37;94882.22;;;9.10;91.18
23339;BME280;11841;49.368;20.962;2024-02-26T03:55:22;94881.44;;;9.09;90.75
23339;BME280;11841;49.368;20.962;2024-02-26T03:58:12;94888.34;;;9.10;90.66
23339;BME280;11841;49.368;20.962;2024-02-26T04:00:59;94898.44;;;9.13;90.90
23339;BME280;11841;49.368;20.962;2024-02-26T04:03:44;94895.03;;;9.13;90.84
23339;BME280;11841;49.368;20.962;2024-02-26T04:06:30;94887.88;;;9.13;90.82
23339;BME280;11841;49.368;20.962;2024-02-26T04:09:16;94897.22;;;9.16;90.77
23339;BME280;11841;49.368;20.962;2024-02-26T04:12:01;94889.50;;;9.14;90.54
23339;BME280;11841;49.368;20.962;2024-02-26T04:14:47;94893.53;;;9.17;90.76
23339;BME280;11841;49.368;20.962;2024-02-26T04:17:32;94887.09;;;9.13;90.74
23339;BME280;11841;49.368;20.962;2024-02-26T04:20:17;94895.22;;;9.11;90.81
23339;BME280;11841;49.368;20.962;2024-02-26T04:23:03;94891.56;;;9.12;91.06
23339;BME280;11841;49.368;20.962;2024-02-26T04:25:49;94886.28;;;9.12;90.72
23339;BME280;11841;49.368;20.962;2024-02-26T04:28:34;94888.91;;;9.12;90.70
23339;BME280;11841;49.368;20.962;2024-02-26T04:31:21;94884.22;;;9.14;90.92
23339;BME280;11841;49.368;20.962;2024-02-26T04:34:06;94877.06;;;9.15;90.76
23339;BME280;11841;49.368;20.962;2024-02-26T04:36:53;94871.88;;;9.08;91.11
23339;BME280;11841;49.368;20.962;2024-02-26T04:39:39;94877.75;;;9.10;91.41
23339;BME280;11841;49.368;20.962;2024-02-26T04:42:24;94880.19;;;9.12;91.13
23339;BME280;11841;49.368;20.962;2024-02-26T04:45:09;94871.22;;;9.13;91.29
23339;BME280;11841;49.368;20.962;2024-02-26T04:47:55;94875.25;;;9.15;90.87
23339;BME280;11841;49.368;20.962;2024-02-26T04:50:40;94873.06;;;9.12;90.78
23339;BME280;11841;49.368;20.962;2024-02-26T04:53:25;94863.84;;;9.15;91.06
23339;BME280;11841;49.368;20.962;2024-02-26T04:56:11;94862.84;;;9.16;90.65
23339;BME280;11841;49.368;20.962;2024-02-26T04:58:56;94873.19;;;9.17;90.80
23339;BME280;11841;49.368;20.962;2024-02-26T05:01:42;94867.31;;;9.15;90.90
23339;BME280;11841;49.368;20.962;2024-02-26T05:04:27;94873.19;;;9.17;90.76
23339;BME280;11841;49.368;20.962;2024-02-26T05:07:13;94874.78;;;9.18;90.72
23339;BME280;11841;49.368;20.962;2024-02-26T05:09:58;94870.53;;;9.17;90.82
23339;BME280;11841;49.368;20.962;2024-02-26T05:12:44;94881.69;;;9.19;90.54
23339;BME280;11841;49.368;20.962;2024-02-26T05:15:30;94879.28;;;9.18;90.95
23339;BME280;11841;49.368;20.962;2024-02-26T05:18:15;94878.47;;;9.17;90.52
23339;BME280;11841;49.368;20.962;2024-02-26T05:21:00;94876.84;;;9.16;90.92
23339;BME280;11841;49.368;20.962;2024-02-26T05:23:46;94876.84;;;9.16;91.33
23339;BME280;11841;49.368;20.962;2024-02-26T05:26:31;94878.47;;;9.17;91.18
23339;BME280;11841;49.368;20.962;2024-02-26T05:29:17;94884.78;;;9.16;91.25
23339;BME280;11841;49.368;20.962;2024-02-26T05:32:03;94877.31;;;9.13;91.05
23339;BME280;11841;49.368;20.962;2024-02-26T05:34:48;94882.59;;;9.13;91.32
23339;BME280;11841;49.368;20.962;2024-02-26T05:37:34;94890.28;;;9.15;91.29
23339;BME280;11841;49.368;20.962;2024-02-26T05:40:19;94886.88;;;9.14;91.27
23339;BME280;11841;49.368;20.962;2024-02-26T05:43:05;94892.94;;;9.15;91.29
23339;BME280;11841;49.368;20.962;2024-02-26T05:45:50;94898.00;;;9.16;91.37
23339;BME280;11841;49.368;20.962;2024-02-26T05:48:35;94899.84;;;9.16;91.47
23339;BME280;11841;49.368;20.962;2024-02-26T05:51:21;94909.38;;;9.17;91.68
23339;BME280;11841;49.368;20.962;2024-02-26T05:54:07;94902.84;;;9.19;91.47
23339;BME280;11841;49.368;20.962;2024-02-26T05:56:53;94906.75;;;9.17;92.04
23339;BME280;11841;49.368;20.962;2024-02-26T05:59:39;94902.84;;;9.19;91.77
23339;BME280;11841;49.368;20.962;2024-02-26T06:02:24;94900.63;;;9.16;92.10
23339;BME280;11841;49.368;20.962;2024-02-26T06:05:10;94909.38;;;9.17;92.29
23339;BME280;11841;49.368;20.962;2024-02-26T06:07:55;94908.13;;;9.19;91.91
23339;BME280;11841;49.368;20.962;2024-02-26T06:10:40;94909.75;;;9.20;91.76
23339;BME280;11841;49.368;20.962;2024-02-26T06:13:26;94906.09;;;9.21;91.69
23339;BME280;11841;49.368;20.962;2024-02-26T06:16:11;94917.44;;;9.22;91.91
23339;BME280;11841;49.368;20.962;2024-02-26T06:18:56;94913.44;;;9.19;92.38
23339;BME280;11841;49.368;20.962;2024-02-26T06:21:42;94913.44;;;9.19;92.10
23339;BME280;11841;49.368;20.962;2024-02-26T06:24:28;94920.91;;;9.22;92.13
23339;BME280;11841;49.368;20.962;2024-02-26T06:27:13;94921.72;;;9.23;92.18
23339;BME280;11841;49.368;20.962;2024-02-26T06:29:59;94919.84;;;9.23;92.27
23339;BME280;11841;49.368;20.962;2024-02-26T06:32:44;94932.66;;;9.26;92.20
23339;BME280;11841;49.368;20.962;2024-02-26T06:35:30;94930.00;;;9.26;91.95
23339;BME280;11841;49.368;20.962;2024-02-26T06:38:15;94933.44;;;9.27;92.29
23339;BME280;11841;49.368;20.962;2024-02-26T06:41:01;94923.09;;;9.25;92.01
23339;BME280;11841;49.368;20.962;2024-02-26T06:43:48;94927.91;;;9.28;92.29
23339;BME280;11841;49.368;20.962;2024-02-26T06:46:33;94921.63;;;9.29;92.02
23339;BME280;11841;49.368;20.962;2024-02-26T06:49:19;94932.78;;;9.31;92.27
23339;BME280;11841;49.368;20.962;2024-02-26T06:52:04;94929.09;;;9.32;92.47
23339;BME280;11841;49.368;20.962;2024-02-26T06:54:51;94929.66;;;9.34;92.62
23339;BME280;11841;49.368;20.962;2024-02-26T06:57:38;94916.22;;;9.36;92.59
23339;BME280;11841;49.368;20.962;2024-02-26T07:00:23;94923.91;;;9.37;92.77
23339;BME280;11841;49.368;20.962;2024-02-26T07:03:09;94923.69;;;9.39;93.20
23339;BME280;11841;49.368;20.962;2024-02-26T07:05:54;94935.66;;;9.41;92.94
23339;BME280;11841;49.368;20.962;2024-02-26T07:08:40;94926.09;;;9.40;93.43
23339;BME280;11841;49.368;20.962;2024-02-26T07:11:25;94931.97;;;9.42;93.40
23339;BME280;11841;49.368;20.962;2024-02-26T07:14:12;94922.44;;;9.41;93.81
23339;BME280;11841;49.368;20.962;2024-02-26T07:16:57;94932.78;;;9.43;93.48
23339;BME280;11841;49.368;20.962;2024-02-26T07:19:43;94924.50;;;9.39;94.01
23339;BME280;11841;49.368;20.962;2024-02-26T07:22:29;94925.31;;;9.40;94.08
23339;BME280;11841;49.368;20.962;2024-02-26T07:25:14;94928.75;;;9.40;94.04
23339;BME280;11841;49.368;20.962;2024-02-26T07:28:01;94936.25;;;9.43;94.20
23339;BME280;11841;49.368;20.962;2024-02-26T07:30:46;94940.25;;;9.46;93.84
23339;BME280;11841;49.368;20.962;2024-02-26T07:33:31;94943.72;;;9.46;94.63
23339;BME280;11841;49.368;20.962;2024-02-26T07:36:17;94942.69;;;9.47;94.07
23339;BME280;11841;49.368;20.962;2024-02-26T07:39:03;94935.31;;;9.49;94.11
23339;BME280;11841;49.368;20.962;2024-02-26T07:41:48;94929.56;;;9.52;94.10
23339;BME280;11841;49.368;20.962;2024-02-26T07:44:36;94932.91;;;9.48;94.75
23339;BME280;11841;49.368;20.962;2024-02-26T07:47:22;94932.78;;;9.43;95.72
23339;BME280;11841;49.368;20.962;2024-02-26T07:50:08;94931.63;;;9.50;95.36
23339;BME280;11841;49.368;20.962;2024-02-26T07:52:54;94938.09;;;9.54;95.70
23339;BME280;11841;49.368;20.962;2024-02-26T07:55:39;94933.97;;;9.58;95.53
23339;BME280;11841;49.368;20.962;2024-02-26T07:58:24;94931.44;;;9.63;95.32
23339;BME280;11841;49.368;20.962;2024-02-26T08:01:13;94933.84;;;9.65;96.45
23339;BME280;11841;49.368;20.962;2024-02-26T08:03:59;94937.84;;;9.67;96.26
23339;BME280;11841;49.368;20.962;2024-02-26T08:06:44;94934.78;;;9.70;97.16
23339;BME280;11841;49.368;20.962;2024-02-26T08:09:30;94938.09;;;9.77;96.98
23339;BME280;11841;49.368;20.962;2024-02-26T08:12:15;94931.31;;;9.82;96.91
23339;BME280;11841;49.368;20.962;2024-02-26T08:15:02;94941.19;;;9.86;97.08
23339;BME280;11841;49.368;20.962;2024-02-26T08:17:47;94955.38;;;9.92;96.97
23339;BME280;11841;49.368;20.962;2024-02-26T08:20:33;94941.09;;;9.93;97.23
23339;BME280;11841;49.368;20.962;2024-02-26T08:23:18;94952.81;;;9.97;97.00
23339;BME280;11841;49.368;20.962;2024-02-26T08:26:05;94949.94;;;9.98;97.36
23339;BME280;11841;49.368;20.962;2024-02-26T08:28:52;94951.94;;;10.03;97.30
23339;BME280;11841;49.368;20.962;2024-02-26T08:31:37;94947.75;;;10.07;97.36
23339;BME280;11841;49.368;20.962;2024-02-26T08:34:23;94947.75;;;10.07;97.97
23339;BME280;11841;49.368;20.962;2024-02-26T08:37:08;94954.25;;;10.11;97.82
23339;BME280;11841;49.368;20.962;2024-02-26T08:39:53;94946.06;;;10.12;97.97
23339;BME280;11841;49.368;20.962;2024-02-26T08:42:39;94950.06;;;10.15;97.79
23339;BME280;11841;49.368;20.962;2024-02-26T08:45:27;94939.03;;;10.18;97.67
23339;BME280;11841;49.368;20.962;2024-02-26T08:48:15;94940.88;;;10.17;97.88
23339;BME280;11841;49.368;20.962;2024-02-26T08:51:05;94942.03;;;10.21;97.89
23339;BME280;11841;49.368;20.962;2024-02-26T08:53:51;94940.50;;;10.25;97.88
23339;BME280;11841;49.368;20.962;2024-02-26T08:56:36;94934.78;;;10.28;97.65
23339;BME280;11841;49.368;20.962;2024-02-26T08:59:22;94942.00;;;10.33;97.82
23339;BME280;11841;49.368;20.962;2024-02-26T09:02:08;94945.34;;;10.40;97.63
23339;BME280;11841;49.368;20.962;2024-02-26T09:04:54;94950.25;;;10.48;97.27
23339;BME280;11841;49.368;20.962;2024-02-26T09:07:40;94947.47;;;10.54;97.34
23339;BME280;11841;49.368;20.962;2024-02-26T09:10:25;94944.13;;;10.59;97.20
23339;BME280;11841;49.368;20.962;2024-02-26T09:13:11;94943.28;;;10.70;96.77
23339;BME280;11841;49.368;20.962;2024-02-26T09:15:56;94941.56;;;10.75;97.00
23339;BME280;11841;49.368;20.962;2024-02-26T09:18:42;94939.78;;;10.81;96.59
23339;BME280;11841;49.368;20.962;2024-02-26T09:21:28;94939.75;;;10.92;95.86
23339;BME280;11841;49.368;20.962;2024-02-26T09:24:18;94949.16;;;11.00;95.33
23339;BME280;11841;49.368;20.962;2024-02-26T09:27:04;94947.25;;;11.12;95.17
23339;BME280;11841;49.368;20.962;2024-02-26T09:29:56;94945.28;;;11.19;95.21
23339;BME280;11841;49.368;20.962;2024-02-26T09:32:46;94945.28;;;11.19;94.55
23339;BME280;11841;49.368;20.962;2024-02-26T09:35:42;94945.28;;;11.19;94.39
23339;BME280;11841;49.368;20.962;2024-02-26T09:38:28;94954.16;;;11.13;94.71
23339;BME280;11841;49.368;20.962;2024-02-26T09:41:20;94939.88;;;11.14;94.38
23339;BME280;11841;49.368;20.962;2024-02-26T09:44:06;94947.03;;;11.14;94.41
23339;BME280;11841;49.368;20.962;2024-02-26T09:46:52;94950.97;;;11.11;94.95
23339;BME280;11841;49.368;20.962;2024-02-26T09:49:38;94957.53;;;11.09;95.47
23339;BME280;11841;49.368;20.962;2024-02-26T09:52:25;94961.72;;;11.05;96.04
23339;BME280;11841;49.368;20.962;2024-02-26T09:55:13;94954.06;;;11.08;95.39
23339;BME280;11841;49.368;20.962;2024-02-26T09:57:59;94950.41;;;11.09;95.88
23339;BME280;11841;49.368;20.962;2024-02-26T10:00:51;94963.75;;;11.14;96.07
23339;BME280;11841;49.368;20.962;2024-02-26T10:03:41;94966.41;;;11.14;95.97
23339;BME280;11841;49.368;20.962;2024-02-26T10:06:26;94958.94;;;11.11;96.42
23339;BME280;11841;49.368;20.962;2024-02-26T10:09:13;94943.56;;;11.13;96.56
23339;BME280;11841;49.368;20.962;2024-02-26T10:12:01;94946.78;;;11.15;96.38
23339;BME280;11841;49.368;20.962;2024-02-26T10:14:47;94959.59;;;11.18;96.45
23339;BME280;11841;49.368;20.962;2024-02-26T10:17:33;94965.44;;;11.20;96.10
23339;BME280;11841;49.368;20.962;2024-02-26T10:20:19;94954.28;;;11.18;96.34
23339;BME280;11841;49.368;20.962;2024-02-26T10:23:07;94966.00;;;11.22;96.53
23339;BME280;11841;49.368;20.962;2024-02-26T10:25:56;94956.78;;;11.25;96.56
23339;BME280;11841;49.368;20.962;2024-02-26T10:28:45;94961.47;;;11.34;97.11
23339;BME280;11841;49.368;20.962;2024-02-26T10:31:33;94969.50;;;11.39;96.84
23339;BME280;11841;49.368;20.962;2024-02-26T10:34:19;94967.41;;;11.41;96.15
23339;BME280;11841;49.368;20.962;2024-02-26T10:37:05;94961.88;;;11.43;96.17
23339;BME280;11841;49.368;20.962;2024-02-26T10:39:50;94957.06;;;11.40;95.05
23339;BME280;11841;49.368;20.962;2024-02-26T10:42:36;94960.91;;;11.49;95.35
23339;BME280;11841;49.368;20.962;2024-02-26T10:45:21;94963.88;;;11.52;95.31
23339;BME280;11841;49.368;20.962;2024-02-26T10:48:10;94968.16;;;11.53;95.02
23339;BME280;11841;49.368;20.962;2024-02-26T10:50:57;94971.16;;;11.57;94.30
23339;BME280;11841;49.368;20.962;2024-02-26T10:53:45;94954.41;;;11.56;94.34
23339;BME280;11841;49.368;20.962;2024-02-26T10:56:33;94963.97;;;11.57;93.62
23339;BME280;11841;49.368;20.962;2024-02-26T10:59:19;94960.84;;;11.60;93.94
23339;BME280;11841;49.368;20.962;2024-02-26T11:02:08;94966.28;;;11.65;93.46
23339;BME280;11841;49.368;20.962;2024-02-26T11:04:55;94960.72;;;11.67;93.84
23339;BME280;11841;49.368;20.962;2024-02-26T11:07:41;94958.72;;;11.74;93.27
23339;BME280;11841;49.368;20.962;2024-02-26T11:10:29;94958.97;;;11.72;93.21
23339;BME280;11841;49.368;20.962;2024-02-26T11:13:17;94956.84;;;11.74;92.95
23339;BME280;11841;49.368;20.962;2024-02-26T11:16:04;94946.53;;;11.78;92.57
23339;BME280;11841;49.368;20.962;2024-02-26T11:18:49;94946.28;;;11.79;92.70
23339;BME280;11841;49.368;20.962;2024-02-26T11:21:37;94952.81;;;11.88;92.41
23339;BME280;11841;49.368;20.962;2024-02-26T11:24:27;94948.56;;;11.87;92.74
23339;BME280;11841;49.368;20.962;2024-02-26T11:27:12;94959.28;;;11.92;92.42
23339;BME280;11841;49.368;20.962;2024-02-26T11:30:00;94954.97;;;11.91;91.87
23339;BME280;11841;49.368;20.962;2024-02-26T11:32:47;94952.91;;;11.93;91.95
23339;BME280;11841;49.368;20.962;2024-02-26T11:35:34;94939.63;;;11.93;91.67
23339;BME280;11841;49.368;20.962;2024-02-26T11:38:21;94951.38;;;11.97;91.72
23339;BME280;11841;49.368;20.962;2024-02-26T11:41:07;94952.41;;;11.96;90.60
23339;BME280;11841;49.368;20.962;2024-02-26T11:44:01;94956.50;;;12.04;90.67
23339;BME280;11841;49.368;20.962;2024-02-26T11:46:46;94951.53;;;12.07;90.66
23339;BME280;11841;49.368;20.962;2024-02-26T11:49:33;94951.59;;;12.12;90.47
23339;BME280;11841;49.368;20.962;2024-02-26T11:52:19;94951.59;;;12.12;90.56
23339;BME280;11841;49.368;20.962;2024-02-26T11:55:05;94955.13;;;12.18;90.24
23339;BME280;11841;49.368;20.962;2024-02-26T11:57:54;94950.06;;;12.17;89.85
23339;BME280;11841;49.368;20.962;2024-02-26T12:00:40;94943.69;;;12.18;89.71
23339;BME280;11841;49.368;20.962;2024-02-26T12:03:25;94961.56;;;12.22;89.89
23339;BME280;11841;49.368;20.962;2024-02-26T12:06:12;94953.66;;;12.27;89.48
23339;BME280;11841;49.368;20.962;2024-02-26T12:08:58;94961.63;;;12.27;88.84
23339;BME280;11841;49.368;20.962;2024-02-26T12:11:43;94963.00;;;12.30;88.65
23339;BME280;11841;49.368;20.962;2024-02-26T12:14:29;94966.84;;;12.39;88.63
23339;BME280;11841;49.368;20.962;2024-02-26T12:17:22;94953.63;;;12.44;88.76
23339;BME280;11841;49.368;20.962;2024-02-26T12:20:11;94960.59;;;12.50;88.11
23339;BME280;11841;49.368;20.962;2024-02-26T12:22:58;94957.38;;;12.48;88.06
23339;BME280;11841;49.368;20.962;2024-02-26T12:25:44;94956.41;;;12.54;87.69
23339;BME280;11841;49.368;20.962;2024-02-26T12:28:30;94963.88;;;12.57;87.29
23339;BME280;11841;49.368;20.962;2024-02-26T12:31:15;94958.31;;;12.58;87.02
23339;BME280;11841;49.368;20.962;2024-02-26T12:34:01;94959.44;;;12.62;87.48
23339;BME280;11841;49.368;20.962;2024-02-26T12:36:47;94961.28;;;12.62;87.09
23339;BME280;11841;49.368;20.962;2024-02-26T12:39:32;94953.63;;;12.65;87.24
23339;BME280;11841;49.368;20.962;2024-02-26T12:42:18;94948.00;;;12.62;86.20
23339;BME280;11841;49.368;20.962;2024-02-26T12:45:14;94939.78;;;12.63;87.21
23339;BME280;11841;49.368;20.962;2024-02-26T12:48:01;94942.19;;;12.65;86.71
23339;BME280;11841;49.368;20.962;2024-02-26T12:50:46;94938.97;;;12.63;84.86
23339;BME280;11841;49.368;20.962;2024-02-26T12:53:35;94928.31;;;12.63;84.52
23339;BME280;11841;49.368;20.962;2024-02-26T12:56:21;94929.94;;;12.64;84.45
23339;BME280;11841;49.368;20.962;2024-02-26T12:59:07;94929.69;;;12.65;84.62
23339;BME280;11841;49.368;20.962;2024-02-26T13:01:53;94936.66;;;12.71;84.68
23339;BME280;11841;49.368;20.962;2024-02-26T13:04:39;94927.28;;;12.64;84.04
23339;BME280;11841;49.368;20.962;2024-02-26T13:07:24;94931.53;;;12.65;83.89
23339;BME280;11841;49.368;20.962;2024-02-26T13:10:10;94937.38;;;12.62;84.18
23339;BME280;11841;49.368;20.962;2024-02-26T13:13:01;94942.38;;;12.58;84.13
23339;BME280;11841;49.368;20.962;2024-02-26T13:15:47;94942.81;;;12.50;84.30
23339;BME280;11841;49.368;20.962;2024-02-26T13:18:32;94947.38;;;12.55;84.29
23339;BME280;11841;49.368;20.962;2024-02-26T13:21:18;94942.88;;;12.55;84.12
23339;BME280;11841;49.368;20.962;2024-02-26T13:24:06;94935.47;;;12.57;84.36
23339;BME280;11841;49.368;20.962;2024-02-26T13:26:55;94933.34;;;12.59;84.76
23339;BME280;11841;49.368;20.962;2024-02-26T13:29:40;94933.63;;;12.63;84.82
23339;BME280;11841;49.368;20.962;2024-02-26T13:32:26;94933.88;;;12.61;84.56
23339;BME280;11841;49.368;20.962;2024-02-26T13:35:16;94935.25;;;12.64;82.99
23339;BME280;11841;49.368;20.962;2024-02-26T13:38:03;94926.53;;;12.68;83.01
23339;BME280;11841;49.368;20.962;2024-02-26T13:40:49;94932.72;;;12.74;83.32
23339;BME280;11841;49.368;20.962;2024-02-26T13:43:34;94931.66;;;12.75;82.97
23339;BME280;11841;49.368;20.962;2024-02-26T13:46:20;94938.09;;;12.79;82.90
23339;BME280;11841;49.368;20.962;2024-02-26T13:49:08;94941.31;;;12.81;83.25
23339;BME280;11841;49.368;20.962;2024-02-26T13:51:54;94943.41;;;12.79;83.10
23339;BME280;11841;49.368;20.962;2024-02-26T13:54:39;94943.41;;;12.79;82.71
23339;BME280;11841;49.368;20.962;2024-02-26T13:57:26;94934.38;;;12.80;82.26
23339;BME280;11841;49.368;20.962;2024-02-26T14:00:12;94941.78;;;12.78;82.07
23339;BME280;11841;49.368;20.962;2024-02-26T14:02:59;94942.03;;;12.76;82.08
23339;BME280;11841;49.368;20.962;2024-02-26T14:05:44;94946.66;;;12.81;82.38
23339;BME280;11841;49.368;20.962;2024-02-26T14:08:32;94951.66;;;12.77;82.08
23339;BME280;11841;49.368;20.962;2024-02-26T14:11:18;94948.81;;;12.84;82.10
23339;BME280;11841;49.368;20.962;2024-02-26T14:14:04;94948.84;;;12.89;81.73
23339;BME280;11841;49.368;20.962;2024-02-26T14:16:49;94951.47;;;12.84;81.90
23339;BME280;11841;49.368;20.962;2024-02-26T14:19:34;94946.38;;;12.82;81.51
23339;BME280;11841;49.368;20.962;2024-02-26T14:22:21;94947.44;;;12.81;81.42
23339;BME280;11841;49.368;20.962;2024-02-26T14:25:06;94955.16;;;12.83;81.72
23339;BME280;11841;49.368;20.962;2024-02-26T14:27:54;94943.41;;;12.79;81.14
23339;BME280;11841;49.368;20.962;2024-02-26T14:30:40;94947.06;;;12.73;81.46
23339;BME280;11841;49.368;20.962;2024-02-26T14:33:25;94952.16;;;12.74;81.07